Time;durP1;ratioP1;P1;durP2;ratioP2;P2;SDS_P1;SDS_P2;PMS_P1;PMS_P2;Temp;Humidity;BMP_temperature;BMP_pressure;BME280_temperature;BME280_humidity;BME280_pressure;Samples;Min_cycle;Max_cycle;Signal;HPM_P1;HPM_P2
2022/04/24 00:01:41;;;;;;;28.20;25.80;;;;;;;5.05;62.83;97006.22;105162;1287;22825;-89
2022/04/24 00:04:09;;;;;;;42.20;38.80;;;;;;;5.00;62.92;97000.52;105047;1288;22770;-87
2022/04/24 00:06:39;;;;;;;27.70;25.30;;;;;;;4.93;63.00;97002.46;105056;1289;22727;-87
2022/04/24 00:09:07;;;;;;;35.70;32.70;;;;;;;4.84;63.26;96997.86;104999;1288;22652;-84
2022/04/24 00:11:35;;;;;;;27.80;25.20;;;;;;;4.75;63.39;96989.73;106316;1288;22625;-84
2022/04/24 00:14:09;;;;;;;25.80;23.70;;;;;;;4.70;63.90;96988.72;106263;1287;22808;-88
2022/04/24 00:16:38;;;;;;;24.70;22.60;;;;;;;4.70;63.81;96987.22;105338;1288;24260;-88
2022/04/24 00:19:06;;;;;;;23.00;21.00;;;;;;;4.70;63.83;96983.27;104947;1287;22804;-90
2022/04/24 00:21:34;;;;;;;32.40;29.70;;;;;;;4.73;64.03;96981.05;105204;1287;25604;-88
2022/04/24 00:24:03;;;;;;;24.00;21.90;;;;;;;4.77;64.11;96979.19;106741;1287;25949;-87
2022/04/24 00:26:30;;;;;;;27.30;24.90;;;;;;;4.79;64.31;96978.02;106165;1287;22607;-88
2022/04/24 00:28:58;;;;;;;26.00;23.80;;;;;;;4.76;64.19;96976.86;105265;1287;25355;-88
2022/04/24 00:31:26;;;;;;;25.20;23.00;;;;;;;4.76;64.46;96974.77;105439;1287;22894;-88
2022/04/24 00:33:54;;;;;;;28.70;26.30;;;;;;;4.76;64.92;96972.27;105452;1287;23446;-87
2022/04/24 00:36:22;;;;;;;32.30;29.60;;;;;;;4.68;64.72;96968.46;105324;1287;22679;-89
2022/04/24 00:38:50;;;;;;;29.90;26.90;;;;;;;4.60;64.92;96965.19;105269;1287;25379;-88
2022/04/24 00:42:03;;;;;;;35.10;32.20;;;;;;;4.58;64.97;96962.27;105292;1287;24354;-91
2022/04/24 00:44:51;;;;;;;23.60;21.40;;;;;;;4.68;65.32;96952.83;106366;1287;23279;-90
2022/04/24 00:47:22;;;;;;;23.60;21.60;;;;;;;4.73;65.06;96950.90;105035;1287;22854;-86
2022/04/24 00:49:50;;;;;;;25.40;23.30;;;;;;;4.78;65.34;96949.30;104924;1287;22662;-88
2022/04/24 00:52:19;;;;;;;28.30;25.70;;;;;;;4.83;65.29;96949.58;104967;1287;22683;-88
2022/04/24 00:54:47;;;;;;;31.20;28.40;;;;;;;4.87;65.88;96952.35;105131;1287;22570;-85
2022/04/24 00:57:14;;;;;;;31.70;29.00;;;;;;;4.93;65.85;96951.59;104833;1287;22579;-90
2022/04/24 00:59:42;;;;;;;31.50;28.80;;;;;;;4.95;65.91;96952.83;104922;1287;25387;-88
2022/04/24 01:02:10;;;;;;;27.10;25.00;;;;;;;4.99;66.04;96946.22;105107;1287;24249;-90
2022/04/24 01:04:39;;;;;;;29.00;26.30;;;;;;;5.07;65.87;96944.95;104935;1288;22566;-88
2022/04/24 01:07:08;;;;;;;24.70;22.60;;;;;;;5.11;66.02;96940.90;105048;1288;22666;-90
2022/04/24 01:09:36;;;;;;;28.80;26.20;;;;;;;5.07;65.78;96940.14;104650;1289;22598;-92
2022/04/24 01:12:06;;;;;;;26.80;24.60;;;;;;;5.06;66.01;96938.23;105049;1287;23558;-90
2022/04/24 01:14:34;;;;;;;29.90;27.40;;;;;;;5.09;66.46;96937.77;105093;1287;22586;-90
2022/04/24 01:17:04;;;;;;;27.90;25.70;;;;;;;5.08;66.15;96935.85;105030;1287;22581;-88
2022/04/24 01:19:33;;;;;;;28.90;26.30;;;;;;;5.09;66.42;96933.55;104899;1288;25343;-86
2022/04/24 01:22:01;;;;;;;32.60;29.80;;;;;;;5.13;66.38;96935.10;105065;1287;25256;-88
2022/04/24 01:24:30;;;;;;;34.00;30.90;;;;;;;5.21;66.52;96939.55;105101;1287;25555;-89
2022/04/24 01:26:57;;;;;;;24.40;22.40;;;;;;;5.33;66.78;96938.59;104985;1288;22702;-90
2022/04/24 01:29:26;;;;;;;23.60;21.60;;;;;;;5.45;66.77;96934.36;105136;1287;22581;-87
2022/04/24 01:31:54;;;;;;;24.80;22.70;;;;;;;5.57;67.01;96932.32;105249;1287;22687;-87
2022/04/24 01:34:22;;;;;;;24.70;22.70;;;;;;;5.67;67.02;96931.10;105062;1287;22581;-88
2022/04/24 01:36:50;;;;;;;32.50;30.00;;;;;;;5.76;67.23;96923.43;105993;1287;23125;-88
2022/04/24 01:39:18;;;;;;;22.80;20.90;;;;;;;5.83;67.34;96919.94;105935;1287;27199;-87
2022/04/24 01:41:45;;;;;;;22.80;20.90;;;;;;;5.93;67.13;96912.80;105033;1287;22556;-85
2022/04/24 01:44:13;;;;;;;20.60;18.90;;;;;;;6.03;67.07;96910.95;104926;1287;22563;-85
2022/04/24 01:46:41;;;;;;;21.30;19.40;;;;;;;6.14;67.30;96907.86;105057;1287;23957;-89
2022/04/24 01:49:10;;;;;;;22.00;20.10;;;;;;;6.24;67.40;96902.23;104962;1288;22580;-86
2022/04/24 01:51:38;;;;;;;25.20;23.10;;;;;;;6.31;67.37;96899.15;105151;1287;23967;-85
2022/04/24 01:54:06;;;;;;;26.10;23.80;;;;;;;6.39;67.46;96889.61;105048;1287;22572;-86
2022/04/24 01:56:34;;;;;;;21.70;19.90;;;;;;;6.46;67.52;96887.71;105038;1287;24240;-85
2022/04/24 01:59:02;;;;;;;19.20;17.60;;;;;;;6.53;67.52;96883.77;105158;1287;23962;-90
2022/04/24 02:01:30;;;;;;;18.00;16.50;;;;;;;6.62;67.34;96882.05;106318;1287;22554;-87
2022/04/24 02:03:58;;;;;;;21.20;19.50;;;;;;;6.72;67.34;96880.30;106114;1287;23960;-86
2022/04/24 02:06:26;;;;;;;20.60;18.90;;;;;;;6.82;67.31;96875.81;104941;1287;22572;-86
2022/04/24 02:08:54;;;;;;;20.20;18.50;;;;;;;6.91;67.39;96873.38;105081;1287;22626;-83
2022/04/24 02:11:22;;;;;;;22.60;20.80;;;;;;;6.98;67.44;96870.99;105080;1288;22992;-84
2022/04/24 02:13:50;;;;;;;20.20;18.60;;;;;;;7.04;67.39;96873.80;104877;1289;24115;-86
2022/04/24 02:16:17;;;;;;;18.60;16.80;;;;;;;7.11;67.42;96872.79;104892;1287;23218;-88
2022/04/24 02:18:45;;;;;;;17.30;15.90;;;;;;;7.16;67.33;96873.82;104948;1287;22634;-87
2022/04/24 02:21:13;;;;;;;17.60;16.20;;;;;;;7.22;67.15;96879.25;104834;1287;23398;-87
2022/04/24 02:23:41;;;;;;;17.80;16.20;;;;;;;7.30;67.18;96880.11;104937;1287;24303;-87
2022/04/24 02:26:09;;;;;;;17.30;15.70;;;;;;;7.39;67.21;96876.73;104903;1287;22910;-86
2022/04/24 02:28:37;;;;;;;16.90;15.30;;;;;;;7.47;67.23;96874.56;104847;1287;22562;-89
2022/04/24 02:31:05;;;;;;;15.00;13.80;;;;;;;7.55;67.21;96873.58;104966;1287;22563;-87
2022/04/24 02:33:33;;;;;;;21.20;19.20;;;;;;;7.62;67.01;96873.36;104945;1287;22900;-88
2022/04/24 02:36:00;;;;;;;29.00;26.50;;;;;;;7.67;67.12;96867.67;105675;1287;22549;-87
2022/04/24 02:38:29;;;;;;;22.10;20.20;;;;;;;7.71;66.80;96864.95;106651;1287;22597;-88
2022/04/24 02:40:57;;;;;;;22.20;20.20;;;;;;;7.74;66.97;96859.08;106020;1287;22569;-87
2022/04/24 02:43:24;;;;;;;19.00;17.40;;;;;;;7.77;66.78;96856.61;105008;1287;24140;-87
2022/04/24 02:45:52;;;;;;;18.70;17.10;;;;;;;7.80;66.73;96857.23;105107;1287;22898;-88
2022/04/24 02:48:22;;;;;;;17.10;15.70;;;;;;;7.83;67.03;96849.26;105189;1287;24251;-87
2022/04/24 02:50:50;;;;;;;18.00;16.50;;;;;;;7.87;66.69;96845.46;105005;1287;22562;-88
2022/04/24 02:53:18;;;;;;;16.20;14.80;;;;;;;7.90;66.80;96837.23;105096;1287;24218;-87
2022/04/24 02:55:45;;;;;;;15.40;14.00;;;;;;;7.94;66.79;96839.44;105066;1287;23243;-88
2022/04/24 02:58:13;;;;;;;15.20;13.90;;;;;;;8.00;66.79;96832.47;105135;1287;22578;-90
2022/04/24 03:00:49;;;;;;;13.90;12.80;;;;;;;8.07;66.85;96834.65;104978;1287;22999;-88
2022/04/24 03:03:23;;;;;;;16.60;15.20;;;;;;;8.13;66.50;96836.80;108526;1287;22615;-85
2022/04/24 03:05:51;;;;;;;14.80;13.60;;;;;;;8.22;66.82;96840.23;108538;1287;22931;-88
2022/04/24 03:08:19;;;;;;;14.90;13.70;;;;;;;8.32;66.74;96841.74;108111;1287;22489;-88
2022/04/24 03:10:48;;;;;;;14.80;13.40;;;;;;;8.41;66.73;96840.31;107710;1287;22562;-86
2022/04/24 03:13:15;;;;;;;19.90;18.20;;;;;;;8.50;66.35;96837.20;106267;1288;22676;-88
2022/04/24 03:15:44;;;;;;;31.30;28.20;;;;;;;8.55;66.10;96834.31;105477;1286;22590;-87
2022/04/24 03:18:12;;;;;;;34.20;31.20;;;;;;;8.57;65.76;96837.39;105292;1287;23238;-88
2022/04/24 03:20:40;;;;;;;28.70;26.10;;;;;;;8.53;65.70;96835.70;104999;1287;24410;-89
2022/04/24 03:23:07;;;;;;;28.10;25.40;;;;;;;8.48;65.62;96832.10;105164;1287;22632;-87
2022/04/24 03:25:35;;;;;;;28.90;26.20;;;;;;;8.39;65.72;96827.33;105008;1287;22559;-86
2022/04/24 03:28:04;;;;;;;32.10;28.90;;;;;;;8.31;65.59;96827.61;105119;1287;22577;-87
2022/04/24 03:30:32;;;;;;;27.60;25.10;;;;;;;8.23;65.73;96827.98;105062;1287;22601;-87
2022/04/24 03:32:59;;;;;;;24.70;22.30;;;;;;;8.18;65.75;96832.05;104950;1287;23806;-87
2022/04/24 03:35:27;;;;;;;26.90;24.70;;;;;;;8.16;65.68;96833.34;104931;1287;25342;-87
2022/04/24 03:37:55;;;;;;;34.30;31.10;;;;;;;8.13;65.76;96836.27;105003;1287;22557;-86
2022/04/24 03:40:23;;;;;;;39.50;35.70;;;;;;;8.08;65.49;96837.44;107189;1287;22673;-86
2022/04/24 03:42:51;;;;;;;38.20;34.70;;;;;;;7.98;65.35;96834.30;105531;1288;22626;-89
2022/04/24 03:45:20;;;;;;;37.80;34.30;;;;;;;7.90;65.54;96838.54;104916;1288;22787;-91
2022/04/24 03:47:48;;;;;;;33.10;30.10;;;;;;;7.82;65.48;96839.70;105049;1288;25378;-88
2022/04/24 03:50:16;;;;;;;28.30;25.70;;;;;;;7.78;65.63;96840.17;105131;1287;22688;-89
2022/04/24 03:52:44;;;;;;;25.00;22.70;;;;;;;7.75;65.78;96844.00;105095;1287;24277;-88
2022/04/24 03:55:11;;;;;;;26.30;23.90;;;;;;;7.74;65.76;96847.51;104907;1287;22568;-87
2022/04/24 03:57:39;;;;;;;26.50;24.30;;;;;;;7.74;65.92;96852.55;104963;1287;25647;-87
2022/04/24 04:00:08;;;;;;;27.10;24.70;;;;;;;7.71;65.91;96857.86;104919;1287;22655;-89
2022/04/24 04:02:43;;;;;;;33.40;30.00;;;;;;;7.71;65.82;96863.45;104928;1287;23975;-90
2022/04/24 04:05:13;;;;;;;33.70;30.70;;;;;;;7.70;65.91;96868.52;105003;1287;22559;-88
2022/04/24 04:07:40;;;;;;;32.60;29.70;;;;;;;7.64;65.78;96871.60;104901;1287;22578;-89
2022/04/24 04:10:08;;;;;;;33.70;30.30;;;;;;;7.60;65.67;96875.94;104935;1287;22592;-89
2022/04/24 04:12:36;;;;;;;38.80;35.10;;;;;;;7.57;65.90;96879.17;104970;1287;22617;-88
2022/04/24 04:15:06;;;;;;;34.00;30.90;;;;;;;7.56;65.98;96876.77;104983;1287;24321;-89
2022/04/24 04:17:33;;;;;;;41.00;37.60;;;;;;;7.55;66.12;96877.02;104973;1287;22569;-87
2022/04/24 04:20:02;;;;;;;38.10;34.50;;;;;;;7.51;66.25;96879.41;104933;1287;22695;-87
2022/04/24 04:22:30;;;;;;;40.80;37.10;;;;;;;7.43;66.65;96879.44;104953;1287;25387;-87
2022/04/24 04:24:57;;;;;;;41.60;38.00;;;;;;;7.33;66.69;96884.05;105003;1287;25312;-89
2022/04/24 04:27:26;;;;;;;39.70;36.20;;;;;;;7.24;66.77;96879.79;104923;1287;22647;-88
2022/04/24 04:29:54;;;;;;;41.10;37.30;;;;;;;7.20;67.07;96882.20;104938;1287;25136;-87
2022/04/24 04:32:22;;;;;;;38.40;34.90;;;;;;;7.18;67.26;96876.14;104868;1287;22602;-87
2022/04/24 04:34:50;;;;;;;36.80;33.50;;;;;;;7.19;67.35;96875.95;104929;1287;25413;-88
2022/04/24 04:37:18;;;;;;;39.20;35.60;;;;;;;7.20;67.38;96872.55;104904;1287;22635;-88
2022/04/24 04:39:46;;;;;;;38.00;34.70;;;;;;;7.20;67.54;96869.14;104800;1287;22639;-89
2022/04/24 04:42:14;;;;;;;38.20;35.10;;;;;;;7.20;67.70;96867.82;104867;1288;22596;-86
2022/04/24 04:44:43;;;;;;;37.60;34.50;;;;;;;7.20;67.89;96855.77;104942;1287;22563;-87
2022/04/24 04:47:11;;;;;;;40.40;37.00;;;;;;;7.20;67.90;96851.53;104943;1287;22641;-87
2022/04/24 04:49:38;;;;;;;35.40;32.40;;;;;;;7.23;68.10;96852.91;104954;1287;24335;-87
2022/04/24 04:52:07;;;;;;;30.90;28.10;;;;;;;7.30;68.10;96849.89;105109;1287;22695;-87
2022/04/24 04:54:34;;;;;;;32.50;29.80;;;;;;;7.37;68.11;96848.27;105114;1287;24395;-87
2022/04/24 04:57:03;;;;;;;31.10;28.50;;;;;;;7.44;68.46;96848.02;105108;1288;22611;-86
2022/04/24 04:59:31;;;;;;;30.90;28.30;;;;;;;7.49;68.67;96851.80;105326;1287;22577;-85
2022/04/24 05:01:59;;;;;;;31.40;28.90;;;;;;;7.54;68.72;96853.88;105866;1287;23960;-87
2022/04/24 05:04:32;;;;;;;26.00;24.00;;;;;;;7.57;68.59;96852.84;106187;1287;22893;-86
2022/04/24 05:07:00;;;;;;;25.80;23.70;;;;;;;7.63;68.88;96858.27;105008;1287;24925;-86
2022/04/24 05:09:28;;;;;;;25.70;23.70;;;;;;;7.70;68.96;96857.84;104850;1288;22589;-86
2022/04/24 05:11:56;;;;;;;27.40;25.10;;;;;;;7.76;68.93;96859.79;105090;1287;22760;-87
2022/04/24 05:14:24;;;;;;;26.80;24.30;;;;;;;7.82;69.13;96859.59;104982;1287;23189;-87
2022/04/24 05:16:52;;;;;;;38.30;34.80;;;;;;;7.85;69.12;96861.98;105240;1287;22509;-85
2022/04/24 05:19:20;;;;;;;83.50;75.40;;;;;;;7.89;69.33;96860.18;106024;1287;22655;-87
2022/04/24 05:21:47;;;;;;;68.50;62.10;;;;;;;7.93;69.45;96859.70;104987;1287;24246;-87
2022/04/24 05:24:15;;;;;;;64.40;58.30;;;;;;;7.95;69.44;96857.59;105006;1287;22668;-87
2022/04/24 05:26:43;;;;;;;59.60;54.10;;;;;;;7.99;69.63;96857.61;105058;1287;22701;-86
2022/04/24 05:29:12;;;;;;;54.50;49.50;;;;;;;8.04;69.48;96852.66;105091;1287;23964;-85
2022/04/24 05:31:40;;;;;;;44.10;40.20;;;;;;;8.09;69.85;96847.70;105021;1287;24242;-84
2022/04/24 05:34:08;;;;;;;33.80;30.80;;;;;;;8.13;69.88;96847.59;104892;1287;22576;-85
2022/04/24 05:36:36;;;;;;;29.50;26.90;;;;;;;8.17;69.99;96847.11;104883;1287;25379;-85
2022/04/24 05:39:04;;;;;;;27.60;25.30;;;;;;;8.19;70.08;96844.05;104999;1287;24491;-85
2022/04/24 05:41:31;;;;;;;25.90;23.50;;;;;;;8.19;70.16;96846.97;104881;1287;24448;-86
2022/04/24 05:43:59;;;;;;;33.90;31.00;;;;;;;8.18;70.01;96848.86;104893;1287;25393;-85
2022/04/24 05:46:27;;;;;;;32.10;29.40;;;;;;;8.21;70.28;96844.23;104812;1288;22646;-86
2022/04/24 05:48:56;;;;;;;27.90;25.40;;;;;;;8.25;70.18;96843.16;104864;1287;25510;-85
2022/04/24 05:51:24;;;;;;;26.50;24.30;;;;;;;8.32;70.50;96843.13;104847;1287;22556;-85
2022/04/24 05:53:52;;;;;;;27.30;24.90;;;;;;;8.36;70.52;96845.11;104866;1287;25302;-86
2022/04/24 05:56:20;;;;;;;26.10;23.90;;;;;;;8.39;70.72;96846.34;104778;1288;22624;-85
2022/04/24 05:58:48;;;;;;;26.80;24.60;;;;;;;8.41;70.90;96842.00;104920;1287;25362;-86
2022/04/24 06:01:15;;;;;;;32.40;29.50;;;;;;;8.43;71.01;96841.84;104854;1287;25357;-84
2022/04/24 06:03:43;;;;;;;33.40;30.40;;;;;;;8.44;70.87;96835.95;104912;1287;25372;-86
2022/04/24 06:06:11;;;;;;;39.90;36.40;;;;;;;8.48;71.03;96831.13;104775;1288;23138;-85
2022/04/24 06:08:39;;;;;;;41.20;37.50;;;;;;;8.51;71.19;96825.75;104857;1287;22572;-84
2022/04/24 06:11:07;;;;;;;44.80;40.70;;;;;;;8.51;71.16;96822.84;104825;1287;24003;-85
2022/04/24 06:13:35;;;;;;;32.90;30.10;;;;;;;8.49;71.39;96824.22;104876;1287;25394;-84
2022/04/24 06:16:03;;;;;;;29.90;27.30;;;;;;;8.45;71.33;96818.86;104868;1287;23970;-85
2022/04/24 06:18:31;;;;;;;57.20;51.60;;;;;;;8.42;71.28;96827.58;104910;1287;23356;-85
2022/04/24 06:20:59;;;;;;;51.80;47.00;;;;;;;8.38;71.21;96825.75;104917;1287;22583;-85
2022/04/24 06:23:28;;;;;;;47.60;43.50;;;;;;;8.30;71.27;96825.16;104836;1287;22639;-85
2022/04/24 06:25:57;;;;;;;49.20;44.80;;;;;;;8.22;71.49;96824.56;104853;1287;22766;-84
2022/04/24 06:28:25;;;;;;;44.20;40.60;;;;;;;8.12;71.48;96824.42;105053;1287;24236;-85
2022/04/24 06:30:53;;;;;;;47.60;43.90;;;;;;;7.98;71.35;96824.92;104882;1287;22640;-85
2022/04/24 06:33:21;;;;;;;48.50;44.50;;;;;;;7.86;71.67;96817.88;104864;1287;22635;-84
2022/04/24 06:35:49;;;;;;;45.40;41.50;;;;;;;7.80;71.76;96811.75;104839;1287;24236;-85
2022/04/24 06:38:22;;;;;;;46.10;42.50;;;;;;;7.78;72.04;96807.90;104854;1288;24300;-87
2022/04/24 06:40:50;;;;;;;45.70;42.10;;;;;;;7.80;72.16;96804.35;104894;1287;25371;-87
2022/04/24 06:43:18;;;;;;;46.40;42.60;;;;;;;7.83;72.52;96800.10;104912;1288;22597;-86
2022/04/24 06:45:46;;;;;;;48.00;43.90;;;;;;;7.85;72.78;96799.13;104966;1288;24391;-87
2022/04/24 06:48:16;;;;;;;45.30;41.50;;;;;;;7.89;73.05;96802.09;104952;1288;22589;-87
2022/04/24 06:50:46;;;;;;;46.60;42.90;;;;;;;7.97;73.19;96800.20;104889;1288;22563;-88
2022/04/24 06:53:20;;;;;;;44.20;40.50;;;;;;;8.04;72.79;96804.59;104974;1287;22670;-86
2022/04/24 06:55:50;;;;;;;50.30;46.10;;;;;;;8.12;73.59;96805.92;106010;1288;22682;-85
2022/04/24 06:58:19;;;;;;;54.40;49.90;;;;;;;8.22;73.63;96807.92;105533;1287;22566;-85
2022/04/24 07:00:48;;;;;;;55.30;50.40;;;;;;;8.29;73.70;96808.80;105179;1287;23817;-85
2022/04/24 07:03:34;;;;;;;45.90;41.90;;;;;;;8.34;73.99;96804.74;104745;1287;22669;-85
2022/04/24 07:06:02;;;;;;;41.50;38.20;;;;;;;8.39;73.77;96807.30;104989;1288;22589;-87
2022/04/24 07:08:31;;;;;;;36.80;33.50;;;;;;;8.47;73.69;96809.94;104809;1288;25337;-86
2022/04/24 07:10:58;;;;;;;33.80;31.00;;;;;;;8.56;73.86;96805.83;105062;1287;25326;-87
2022/04/24 07:13:26;;;;;;;30.60;27.90;;;;;;;8.63;73.73;96807.32;104964;1287;22615;-86
2022/04/24 07:15:54;;;;;;;30.50;28.00;;;;;;;8.67;73.61;96807.07;104794;1289;22591;-87
2022/04/24 07:18:22;;;;;;;27.50;25.20;;;;;;;8.69;73.87;96808.95;104793;1289;24241;-86
2022/04/24 07:20:50;;;;;;;26.10;23.90;;;;;;;8.69;73.71;96802.67;104812;1288;22791;-87
2022/04/24 07:23:18;;;;;;;26.40;24.20;;;;;;;8.70;73.85;96796.88;104759;1289;23385;-88
2022/04/24 07:25:46;;;;;;;24.50;22.50;;;;;;;8.74;73.85;96793.98;104845;1288;24427;-88
2022/04/24 07:28:18;;;;;;;24.40;22.40;;;;;;;8.83;74.32;96787.70;104921;1288;22582;-87
2022/04/24 07:30:46;;;;;;;24.60;22.50;;;;;;;8.92;73.97;96783.14;104909;1288;22713;-87
2022/04/24 07:33:14;;;;;;;22.70;20.70;;;;;;;8.99;74.13;96782.23;104858;1287;22576;-87
2022/04/24 07:36:42;;;;;;;23.80;21.80;;;;;;;9.04;74.09;96779.92;104835;1288;22609;-87
2022/04/24 07:40:36;;;;;;;20.30;18.70;;;;;;;9.05;74.12;96771.76;104868;1288;22575;-89
2022/04/24 07:44:25;;;;;;;21.80;19.60;;;;;;;9.11;74.07;96771.10;105126;1288;23314;-89
2022/04/24 07:48:14;;;;;;;34.60;31.30;;;;;;;9.17;73.95;96767.48;104858;1288;22863;-89
2022/04/24 07:52:02;;;;;;;25.90;23.50;;;;;;;9.18;74.04;96766.12;104905;1290;23344;-88
2022/04/24 07:55:12;;;;;;;25.10;23.00;;;;;;;9.20;74.13;96765.66;103694;1303;22617;-88
2022/04/24 07:57:41;;;;;;;22.00;20.00;;;;;;;9.25;74.33;96769.10;103785;1303;22647;-88
2022/04/24 08:00:10;;;;;;;19.40;17.70;;;;;;;9.30;74.10;96763.88;103902;1303;24262;-86
2022/04/24 08:03:01;;;;;;;17.50;16.00;;;;;;;9.34;73.92;96765.65;103529;1303;22739;-87
2022/04/24 08:05:39;;;;;;;19.70;17.90;;;;;;;9.35;73.90;96764.70;103911;1303;25346;-90
2022/04/24 08:08:17;;;;;;;18.20;16.60;;;;;;;9.41;73.90;96766.02;103948;1303;22621;-90
2022/04/24 08:10:51;;;;;;;23.20;21.20;;;;;;;9.42;73.92;96771.84;103853;1303;23049;-88
2022/04/24 08:13:20;;;;;;;53.80;49.40;;;;;;;9.44;74.19;96770.54;103887;1303;22748;-90
2022/04/24 08:15:50;;;;;;;55.40;50.60;;;;;;;9.46;74.01;96774.84;103919;1303;25395;-90
2022/04/24 08:18:19;;;;;;;50.90;46.40;;;;;;;9.41;73.83;96768.34;103956;1303;23089;-88
2022/04/24 08:20:47;;;;;;;52.10;47.60;;;;;;;9.37;73.92;96764.70;103932;1302;22829;-89
2022/04/24 08:23:16;;;;;;;53.00;48.40;;;;;;;9.35;73.94;96764.63;103863;1302;22653;-89
2022/04/24 08:25:45;;;;;;;66.90;60.70;;;;;;;9.35;74.26;96770.73;103821;1303;22575;-90
2022/04/24 08:28:14;;;;;;;93.60;79.90;;;;;;;9.37;74.55;96771.15;105778;1301;22418;-85
2022/04/24 08:30:45;;;;;;;52.80;48.20;;;;;;;9.34;74.49;96772.73;107201;1301;22383;-86
2022/04/24 08:33:15;;;;;;;50.00;45.60;;;;;;;9.30;74.30;96771.06;108307;1287;22562;-87
2022/04/24 08:35:45;;;;;;;46.00;42.10;;;;;;;9.24;74.32;96770.48;108190;1288;22609;-89
2022/04/24 08:38:13;;;;;;;47.70;43.90;;;;;;;9.19;74.53;96769.46;107635;1290;22557;-89
2022/04/24 08:40:41;;;;;;;47.10;43.20;;;;;;;9.18;74.73;96769.17;108198;1286;25318;-87
2022/04/24 08:43:09;;;;;;;50.30;46.30;;;;;;;9.15;75.11;96768.41;108225;1288;22826;-87
2022/04/24 08:45:42;;;;;;;47.90;43.90;;;;;;;9.12;74.89;96759.77;106542;1287;24037;-90
2022/04/24 08:48:10;;;;;;;44.30;40.70;;;;;;;9.11;75.02;96755.49;105054;1288;22627;-90
2022/04/24 08:50:38;;;;;;;41.90;38.50;;;;;;;9.14;75.08;96757.24;104724;1291;22583;-92
2022/04/24 08:53:09;;;;;;;41.70;38.20;;;;;;;9.14;75.21;96754.31;104994;1288;25664;-90
2022/04/24 08:55:37;;;;;;;42.80;39.10;;;;;;;9.13;75.18;96756.42;104947;1290;22886;-86
2022/04/24 08:58:05;;;;;;;41.80;38.30;;;;;;;9.11;75.34;96755.09;104897;1288;22636;-89
2022/04/24 09:00:33;;;;;;;42.20;38.90;;;;;;;9.08;75.56;96756.20;104786;1289;23048;-89
2022/04/24 09:03:01;;;;;;;39.70;36.40;;;;;;;9.05;75.64;96750.27;104852;1290;22709;-87
2022/04/24 09:05:32;;;;;;;38.00;34.80;;;;;;;9.05;75.53;96745.80;104896;1288;22767;-88
2022/04/24 09:08:08;;;;;;;38.40;35.30;;;;;;;9.07;75.60;96743.15;104909;1288;22568;-88
2022/04/24 09:10:58;;;;;;;36.00;32.90;;;;;;;9.07;75.54;96739.61;104923;1290;22625;-88
2022/04/24 09:16:37;;;;;;;32.70;30.10;;;;;;;9.04;75.90;96733.23;104870;1288;22718;-88
2022/04/24 09:19:20;;;;;;;29.20;26.70;;;;;;;9.02;75.82;96735.31;104901;1288;27105;-88
2022/04/24 09:21:49;;;;;;;28.40;25.80;;;;;;;9.03;76.02;96736.58;105191;1290;25370;-88
2022/04/24 09:24:17;;;;;;;29.00;26.60;;;;;;;9.05;76.17;96736.95;105976;1288;25687;-87
2022/04/24 09:26:54;;;;;;;31.80;29.10;;;;;;;9.07;76.12;96737.38;104803;1288;24243;-91
2022/04/24 09:29:23;;;;;;;32.30;29.50;;;;;;;9.08;76.13;96739.48;104956;1287;22607;-89
2022/04/24 09:31:52;;;;;;;34.10;31.20;;;;;;;9.08;76.08;96732.59;104714;1291;25405;-92
2022/04/24 09:34:21;;;;;;;30.20;27.70;;;;;;;9.07;75.98;96727.57;104882;1288;23985;-89
2022/04/24 09:37:03;;;;;;;29.30;26.80;;;;;;;9.10;76.09;96723.30;104929;1288;24189;-89
2022/04/24 09:39:33;;;;;;;30.80;28.10;;;;;;;9.14;76.20;96722.83;105019;1288;22667;-88
2022/04/24 09:42:12;;;;;;;27.80;25.40;;;;;;;9.15;76.30;96721.05;104924;1290;24109;-89
2022/04/24 09:44:51;;;;;;;31.10;28.60;;;;;;;9.14;76.48;96720.70;104918;1289;25447;-89
2022/04/24 09:47:39;;;;;;;30.00;27.60;;;;;;;9.12;76.46;96721.85;104892;1288;22695;-87
2022/04/24 09:50:10;;;;;;;28.10;25.70;;;;;;;9.12;76.52;96721.84;104820;1290;25999;-88
2022/04/24 09:52:44;;;;;;;27.90;25.70;;;;;;;9.13;76.41;96721.75;104949;1288;22720;-87
2022/04/24 09:55:14;;;;;;;28.80;26.50;;;;;;;9.14;76.61;96718.17;104868;1288;24254;-91
2022/04/24 09:57:42;;;;;;;26.30;24.20;;;;;;;9.14;77.01;96717.70;104912;1288;22560;-89
2022/04/24 10:00:11;;;;;;;30.30;27.70;;;;;;;9.14;77.07;96719.38;105038;1288;22570;-87
2022/04/24 10:02:41;;;;;;;29.90;27.40;;;;;;;9.12;76.70;96721.09;105046;1287;22560;-88
2022/04/24 10:05:09;;;;;;;32.90;30.00;;;;;;;9.13;76.98;96716.27;105227;1290;22699;-91
2022/04/24 10:07:38;;;;;;;35.90;32.90;;;;;;;9.15;76.74;96715.03;105313;1288;22572;-87
2022/04/24 10:10:07;;;;;;;33.60;30.90;;;;;;;9.17;76.93;96712.55;105932;1288;22639;-84
2022/04/24 10:12:35;;;;;;;30.30;27.90;;;;;;;9.20;77.08;96716.11;107569;1288;22607;-89
2022/04/24 10:15:12;;;;;;;30.80;28.20;;;;;;;9.19;77.02;96714.00;105307;1288;22575;-88
2022/04/24 10:18:13;;;;;;;30.90;28.20;;;;;;;9.18;77.14;96709.84;105064;1288;188346;-89
2022/04/24 10:21:23;;;;;;;29.70;27.20;;;;;;;9.20;77.11;96710.57;105378;1288;25409;-88
2022/04/24 10:23:51;;;;;;;30.30;27.80;;;;;;;9.24;77.67;96699.04;104798;1291;24014;-87
2022/04/24 10:26:23;;;;;;;30.20;27.80;;;;;;;9.25;77.83;96696.23;105253;1288;25395;-86
2022/04/24 10:29:05;;;;;;;32.60;30.00;;;;;;;9.33;78.02;96690.95;105433;1291;22721;-87
2022/04/24 10:31:44;;;;;;;29.00;26.50;;;;;;;9.43;78.47;96693.68;105188;1288;25676;-86
2022/04/24 10:34:20;;;;;;;30.20;27.60;;;;;;;9.56;78.86;96688.46;105232;1288;22725;-85
2022/04/24 10:36:59;;;;;;;27.00;24.80;;;;;;;9.75;78.66;96680.63;105113;1288;22607;-88
2022/04/24 10:39:30;;;;;;;26.20;23.90;;;;;;;10.00;78.63;96675.39;105238;1288;25393;-86
2022/04/24 10:42:09;;;;;;;27.30;25.00;;;;;;;10.23;79.04;96675.76;105363;1288;23125;-88
2022/04/24 10:44:49;;;;;;;28.90;26.50;;;;;;;10.44;78.61;96664.87;105349;1288;22563;-81
2022/04/24 10:47:17;;;;;;;24.80;22.60;;;;;;;10.61;78.79;96662.71;105246;1288;22729;-87
2022/04/24 10:49:45;;;;;;;23.10;21.30;;;;;;;10.78;78.81;96658.80;105220;1288;23491;-89
2022/04/24 10:52:13;;;;;;;23.00;21.10;;;;;;;10.94;78.62;96656.61;105250;1288;23230;-86
2022/04/24 10:54:41;;;;;;;24.00;21.80;;;;;;;11.07;78.38;96646.05;105211;1288;22582;-86
2022/04/24 10:57:19;;;;;;;22.90;21.00;;;;;;;11.17;78.27;96638.70;105179;1288;22707;-88
2022/04/24 10:59:52;;;;;;;22.10;20.10;;;;;;;11.23;78.17;96634.35;105144;1288;23985;-86
2022/04/24 11:02:23;;;;;;;19.70;17.90;;;;;;;11.30;78.14;96631.58;105365;1288;23291;-88
2022/04/24 11:05:05;;;;;;;20.00;18.20;;;;;;;11.44;78.12;96629.33;105588;1289;22710;-86
2022/04/24 11:07:34;;;;;;;18.80;17.30;;;;;;;11.70;78.42;96628.34;105419;1288;24270;-86
2022/04/24 11:10:10;;;;;;;19.90;18.10;;;;;;;12.07;78.48;96630.82;105462;1288;22572;-88
2022/04/24 11:12:40;;;;;;;20.70;18.90;;;;;;;12.41;77.86;96628.13;105346;1288;22655;-86
2022/04/24 11:15:11;;;;;;;19.60;18.00;;;;;;;12.67;77.72;96625.81;105810;1289;23986;-89
2022/04/24 11:17:40;;;;;;;17.30;15.80;;;;;;;12.96;77.39;96621.44;105946;1290;22622;-89
2022/04/24 11:20:10;;;;;;;16.60;15.30;;;;;;;13.16;76.39;96617.39;106023;1288;23908;-88
2022/04/24 11:22:52;;;;;;;16.50;15.10;;;;;;;13.32;76.45;96615.35;105721;1290;25675;-88
2022/04/24 11:25:24;;;;;;;17.20;15.60;;;;;;;13.59;76.63;96614.11;106685;1289;22713;-86
2022/04/24 11:27:59;;;;;;;16.70;15.20;;;;;;;13.87;76.30;96617.88;106306;1290;25391;-88
2022/04/24 11:30:33;;;;;;;16.20;14.80;;;;;;;14.08;75.22;96614.77;106429;1289;25304;-90
2022/04/24 11:33:06;;;;;;;;;;;;;;;14.25;74.99;96614.55;106290;1288;22672;-91
2022/04/24 11:35:37;;;;;;;15.80;14.30;;;;;;;14.44;75.02;96616.67;106346;1288;23587;-89
2022/04/24 11:38:07;;;;;;;14.40;13.00;;;;;;;14.65;74.07;96622.23;106620;1287;22569;-84
2022/04/24 11:40:44;;;;;;;15.50;14.20;;;;;;;14.80;73.84;96619.75;105907;1290;22615;-88